Katharina — V2DQ5 — position and weather

sailwx.info

Track history (hours):
 
Tides and Currents Weather Stations Pressure Air Temp Water Temp Dewpoint Dewpoint Depression Visibility Wind Speed Wind Dir Waves Ship Positions

Katharina

Last reported at 2016-Apr-30 00:33 UTC. Time now 2016-May-01 23:14 UTC.
Position N 63°41' E 009°16'.

Length 146 m; draft 5.6 m.

Type: Cargo ship. MMSI: 305305000.

Date/timePositionNaut miles runAvg speedWind from/ knotsBaromVisibWave heightAir tempDewpointWater temp
2016-Apr-30 00:33N 63°41' E 009°16'11 2.6
2016-Apr-29 20:15N 63°31' E 009°07'0 0.0
2016-Apr-29 19:33N 63°31' E 009°07'  
2016-Apr-27 09:07N 54°09' E 005°06'911.4
2016-Apr-27 08:22N 54°01' E 005°04'11110.1
2016-Apr-26 21:25N 52°18' E 003°52'1010.4
2016-Apr-26 20:25N 52°08' E 003°55'910.9
2016-Apr-26 19:34N 51°60' E 004°02'1010.1
2016-Apr-26 18:33N 51°54' E 004°16'5 4.9
2016-Apr-26 17:34N 51°54' E 004°24'0 0.0
2016-Apr-26 16:34N 51°54' E 004°24'0 0.0
2016-Apr-26 15:33N 51°54' E 004°24'0 0.0
2016-Apr-26 14:33N 51°54' E 004°24'0 0.0
2016-Apr-26 13:34N 51°54' E 004°24'0 0.1
2016-Apr-26 12:33N 51°54' E 004°24'1 1.2
2016-Apr-26 11:33N 51°53' E 004°25'0 0.0
2016-Apr-26 10:17N 51°53' E 004°25'0 0.0
2016-Apr-26 09:29N 51°53' E 004°25'0 0.0
2016-Apr-26 08:26N 51°53' E 004°25'0 0.0
2016-Apr-26 07:29N 51°53' E 004°25'0 0.0
2016-Apr-26 06:29N 51°53' E 004°25'0 0.0
2016-Apr-26 05:32N 51°53' E 004°25'0 0.0
2016-Apr-26 04:29N 51°53' E 004°25'0 0.0
2016-Apr-26 03:32N 51°53' E 004°25'0 0.0
2016-Apr-26 02:32N 51°53' E 004°25'0 0.0
2016-Apr-26 01:26N 51°53' E 004°25'0 0.0
2016-Apr-26 00:32N 51°53' E 004°25'0 0.0
2016-Apr-25 23:32N 51°53' E 004°25'0 0.0
2016-Apr-25 22:26N 51°53' E 004°25'0 0.0
2016-Apr-25 20:17N 51°53' E 004°25'0 0.0
2016-Apr-25 19:23N 51°53' E 004°25'0 0.0
2016-Apr-25 18:08N 51°53' E 004°25'0 0.0
2016-Apr-25 14:23N 51°53' E 004°25'0 0.0
2016-Apr-25 13:26N 51°53' E 004°25'0 0.0
2016-Apr-25 11:08N 51°53' E 004°25'0 0.0
2016-Apr-25 09:29N 51°53' E 004°25'0 0.0
2016-Apr-25 08:29N 51°53' E 004°25'0 0.0
2016-Apr-25 05:17N 51°53' E 004°25'0 0.0
2016-Apr-25 03:29N 51°53' E 004°25'5 4.9
2016-Apr-25 02:29N 51°54' E 004°17'1111.6
2016-Apr-25 01:33N 51°59' E 004°02'  
Track history (hours):
 
Tides and Currents Weather Stations Pressure Air Temp Water Temp Dewpoint Dewpoint Depression Visibility Wind Speed Wind Dir Waves Ship Positions

Katharina

Last reported at 2016-Apr-30 00:33 UTC. Time now 2016-May-01 23:14 UTC.
Position N 63°41' E 009°16'.

Length 146 m; draft 5.6 m.

Type: Cargo ship. MMSI: 305305000.

Date/timePositionNaut miles runAvg speedWind from/ knotsBaromVisibWave heightAir tempDewpointWater temp
2016-Apr-30 00:33N 63°41' E 009°16'11 2.6
2016-Apr-29 20:15N 63°31' E 009°07'0 0.0
2016-Apr-29 19:33N 63°31' E 009°07'  
2016-Apr-27 09:07N 54°09' E 005°06'911.4
2016-Apr-27 08:22N 54°01' E 005°04'11110.1
2016-Apr-26 21:25N 52°18' E 003°52'1010.4
2016-Apr-26 20:25N 52°08' E 003°55'910.9
2016-Apr-26 19:34N 51°60' E 004°02'1010.1
2016-Apr-26 18:33N 51°54' E 004°16'5 4.9
2016-Apr-26 17:34N 51°54' E 004°24'0 0.0
2016-Apr-26 16:34N 51°54' E 004°24'0 0.0
2016-Apr-26 15:33N 51°54' E 004°24'0 0.0
2016-Apr-26 14:33N 51°54' E 004°24'0 0.0
2016-Apr-26 13:34N 51°54' E 004°24'0 0.1
2016-Apr-26 12:33N 51°54' E 004°24'1 1.2
2016-Apr-26 11:33N 51°53' E 004°25'0 0.0
2016-Apr-26 10:17N 51°53' E 004°25'0 0.0
2016-Apr-26 09:29N 51°53' E 004°25'0 0.0
2016-Apr-26 08:26N 51°53' E 004°25'0 0.0
2016-Apr-26 07:29N 51°53' E 004°25'0 0.0
2016-Apr-26 06:29N 51°53' E 004°25'0 0.0
2016-Apr-26 05:32N 51°53' E 004°25'0 0.0
2016-Apr-26 04:29N 51°53' E 004°25'0 0.0
2016-Apr-26 03:32N 51°53' E 004°25'0 0.0
2016-Apr-26 02:32N 51°53' E 004°25'0 0.0
2016-Apr-26 01:26N 51°53' E 004°25'0 0.0
2016-Apr-26 00:32N 51°53' E 004°25'0 0.0
2016-Apr-25 23:32N 51°53' E 004°25'0 0.0
2016-Apr-25 22:26N 51°53' E 004°25'0 0.0
2016-Apr-25 20:17N 51°53' E 004°25'0 0.0
2016-Apr-25 19:23N 51°53' E 004°25'0 0.0
2016-Apr-25 18:08N 51°53' E 004°25'0 0.0
2016-Apr-25 14:23N 51°53' E 004°25'0 0.0
2016-Apr-25 13:26N 51°53' E 004°25'0 0.0
2016-Apr-25 11:08N 51°53' E 004°25'0 0.0
2016-Apr-25 09:29N 51°53' E 004°25'0 0.0
2016-Apr-25 08:29N 51°53' E 004°25'0 0.0
2016-Apr-25 05:17N 51°53' E 004°25'0 0.0
2016-Apr-25 03:29N 51°53' E 004°25'5 4.9
2016-Apr-25 02:29N 51°54' E 004°17'1111.6
2016-Apr-25 01:33N 51°59' E 004°02'  

Dump ship's entire track history